Time;durP1;ratioP1;P1;durP2;ratioP2;P2;SDS_P1;SDS_P2;PMS_P1;PMS_P2;Temp;Humidity;BMP_temperature;BMP_pressure;BME280_temperature;BME280_humidity;BME280_pressure;Samples;Min_cycle;Max_cycle;Signal;HPM_P1;HPM_P2
2023/04/21 00:01:12;;;;;;;9.30;7.18;;;12.70;76.20;;;;;;5034075;28;20512;-83
2023/04/21 00:03:38;;;;;;;10.38;7.30;;;12.70;76.20;;;;;;5054751;28;20020;-83
2023/04/21 00:06:08;;;;;;;10.18;7.82;;;12.70;76.20;;;;;;5037035;28;20017;-83
2023/04/21 00:08:39;;;;;;;9.85;7.38;;;12.70;76.20;;;;;;5036532;28;20493;-82
2023/04/21 00:11:05;;;;;;;9.57;7.03;;;12.70;76.20;;;;;;5036610;28;20604;-83
2023/04/21 00:13:31;;;;;;;9.35;7.38;;;12.70;76.30;;;;;;5036835;28;20064;-83
2023/04/21 00:15:57;;;;;;;10.50;7.68;;;12.70;76.30;;;;;;5036713;28;20079;-81
2023/04/21 00:18:22;;;;;;;10.40;7.65;;;12.70;76.30;;;;;;5036569;28;20029;-83
2023/04/21 00:20:48;;;;;;;9.65;7.30;;;12.70;76.30;;;;;;5036302;28;20024;-83
2023/04/21 00:23:13;;;;;;;10.13;7.60;;;12.70;76.30;;;;;;5036771;28;20025;-83
2023/04/21 00:25:39;;;;;;;9.10;7.20;;;12.70;76.30;;;;;;5036510;28;20112;-83
2023/04/21 00:28:04;;;;;;;9.65;7.18;;;12.70;76.30;;;;;;5036556;28;20028;-82
2023/04/21 00:30:30;;;;;;;9.57;7.40;;;12.70;76.30;;;;;;5036258;28;20025;-83
2023/04/21 00:32:55;;;;;;;10.63;7.78;;;12.70;76.40;;;;;;5054639;28;20029;-83
2023/04/21 00:35:21;;;;;;;9.43;7.63;;;12.70;76.30;;;;;;5054598;28;20044;-83
2023/04/21 00:37:48;;;;;;;9.55;7.22;;;12.60;76.30;;;;;;5036138;28;20017;-83
2023/04/21 00:40:14;;;;;;;9.48;7.40;;;12.70;76.40;;;;;;5036115;28;20017;-82
2023/04/21 00:42:40;;;;;;;9.00;7.03;;;12.70;76.40;;;;;;5036257;28;20074;-83
2023/04/21 00:45:06;;;;;;;10.18;7.95;;;12.70;76.40;;;;;;5036255;28;20078;-84
2023/04/21 00:47:31;;;;;;;9.20;7.22;;;12.70;76.40;;;;;;5053873;28;20036;-84
2023/04/21 00:49:58;;;;;;;11.32;8.02;;;12.70;76.40;;;;;;5036013;28;20032;-83
2023/04/21 00:52:24;;;;;;;9.45;7.63;;;12.60;76.40;;;;;;5035998;28;20244;-83
2023/04/21 00:54:50;;;;;;;9.73;7.43;;;12.70;76.40;;;;;;5035847;28;20070;-83
2023/04/21 00:57:16;;;;;;;11.30;7.97;;;12.70;76.40;;;;;;5036087;28;20029;-83
2023/04/21 00:59:42;;;;;;;9.50;7.20;;;12.70;76.40;;;;;;5035918;28;20025;-83
2023/04/21 01:02:07;;;;;;;9.55;7.55;;;12.60;76.40;;;;;;5035944;28;20059;-83
2023/04/21 01:04:37;;;;;;;10.20;7.53;;;12.60;76.40;;;;;;5053567;28;20060;-83
2023/04/21 01:07:04;;;;;;;10.10;7.03;;;12.70;76.50;;;;;;5053406;28;20072;-83
2023/04/21 01:09:30;;;;;;;9.82;7.53;;;12.70;76.50;;;;;;5053556;28;20485;-82
2023/04/21 01:12:02;;;;;;;10.02;7.72;;;12.70;76.50;;;;;;5035205;28;20040;-82
2023/04/21 01:14:28;;;;;;;9.25;7.32;;;12.60;76.40;;;;;;5035756;28;20047;-81
2023/04/21 01:16:53;;;;;;;10.38;7.50;;;12.60;76.40;;;;;;5035791;28;20029;-80
2023/04/21 01:19:19;;;;;;;10.23;7.75;;;12.70;76.50;;;;;;5093528;22;20048;-84
2023/04/21 01:21:45;;;;;;;9.50;7.35;;;12.70;76.50;;;;;;5037653;28;20455;-84
2023/04/21 01:24:11;;;;;;;9.93;7.47;;;12.60;76.40;;;;;;5038348;28;20075;-84
2023/04/21 01:26:37;;;;;;;10.65;7.55;;;12.60;76.50;;;;;;5039473;28;20497;-85
2023/04/21 01:29:03;;;;;;;9.80;7.65;;;12.60;76.50;;;;;;5058263;28;20032;-85
2023/04/21 01:31:28;;;;;;;10.48;7.78;;;12.60;76.50;;;;;;5040663;28;20047;-85
2023/04/21 01:33:53;;;;;;;10.98;8.30;;;12.70;76.60;;;;;;5039883;28;20035;-85
2023/04/21 01:36:19;;;;;;;9.45;7.03;;;12.60;76.50;;;;;;5039808;28;20032;-84
2023/04/21 01:38:45;;;;;;;10.52;7.90;;;12.60;76.50;;;;;;5039125;28;20051;-84
2023/04/21 01:41:10;;;;;;;10.10;7.70;;;12.60;76.60;;;;;;5057191;28;20090;-85
2023/04/21 01:43:36;;;;;;;10.75;8.05;;;12.60;76.60;;;;;;5039312;28;20025;-84
2023/04/21 01:46:03;;;;;;;9.82;7.53;;;12.60;76.60;;;;;;5057434;28;20128;-84
2023/04/21 01:48:28;;;;;;;9.70;7.50;;;12.60;76.60;;;;;;5038905;28;20078;-84
2023/04/21 01:50:54;;;;;;;10.02;7.65;;;12.60;76.60;;;;;;5038458;28;20020;-85
2023/04/21 01:53:19;;;;;;;9.63;7.28;;;12.60;76.60;;;;;;5039188;28;20114;-84
2023/04/21 01:55:45;;;;;;;10.15;7.82;;;12.60;76.60;;;;;;5038801;28;20036;-84
2023/04/21 01:58:10;;;;;;;9.55;7.53;;;12.60;76.70;;;;;;5053332;28;20082;-83
2023/04/21 02:00:36;;;;;;;10.00;7.82;;;12.60;76.70;;;;;;5036564;28;20029;-84
2023/04/21 02:03:01;;;;;;;10.15;7.93;;;12.60;76.70;;;;;;5036287;28;20033;-83
2023/04/21 02:05:27;;;;;;;9.98;7.78;;;12.60;76.60;;;;;;5038143;28;20033;-84
2023/04/21 02:07:52;;;;;;;10.48;8.02;;;12.70;76.70;;;;;;5037147;28;20031;-84
2023/04/21 02:10:18;;;;;;;9.57;7.40;;;12.60;76.70;;;;;;5055570;28;20107;-84
2023/04/21 02:12:44;;;;;;;9.82;7.78;;;12.60;76.70;;;;;;5037648;28;20021;-84
2023/04/21 02:15:10;;;;;;;9.70;7.47;;;12.60;76.70;;;;;;5036726;28;20032;-84
2023/04/21 02:17:35;;;;;;;10.45;7.80;;;12.60;76.70;;;;;;5054324;28;20056;-83
2023/04/21 02:20:02;;;;;;;9.57;7.30;;;12.60;76.70;;;;;;5036961;28;20057;-83
2023/04/21 02:22:27;;;;;;;9.10;7.28;;;12.60;76.70;;;;;;5054490;28;20045;-85
2023/04/21 02:24:53;;;;;;;9.65;7.68;;;12.60;76.70;;;;;;5036110;28;20511;-84
2023/04/21 02:27:19;;;;;;;9.88;7.78;;;12.60;76.70;;;;;;5036880;28;20059;-84
2023/04/21 02:29:44;;;;;;;10.02;7.80;;;12.60;76.70;;;;;;5036823;28;20032;-83
2023/04/21 02:32:09;;;;;;;10.05;8.00;;;12.60;76.80;;;;;;5036140;28;20025;-84
2023/04/21 02:34:35;;;;;;;10.00;7.35;;;12.50;76.70;;;;;;5036282;28;20035;-84
2023/04/21 02:37:01;;;;;;;10.30;7.15;;;12.60;76.80;;;;;;5036473;28;20083;-84
2023/04/21 02:39:26;;;;;;;10.55;8.02;;;12.60;76.80;;;;;;5034579;28;20053;-84
2023/04/21 02:41:58;;;;;;;9.88;7.72;;;12.60;76.80;;;;;;5034734;28;20100;-84
2023/04/21 02:44:24;;;;;;;10.23;7.93;;;12.60;76.80;;;;;;5040137;28;20032;-84
2023/04/21 02:46:49;;;;;;;9.00;7.28;;;12.60;76.80;;;;;;5057836;28;20033;-83
2023/04/21 02:49:15;;;;;;;9.98;7.70;;;12.60;76.80;;;;;;5055236;28;20033;-84
2023/04/21 02:51:40;;;;;;;9.80;8.00;;;12.60;76.80;;;;;;5055348;28;20492;-84
2023/04/21 02:54:06;;;;;;;9.65;7.47;;;12.60;76.80;;;;;;5054281;28;20460;-84
2023/04/21 02:56:33;;;;;;;10.18;7.80;;;12.60;76.80;;;;;;5055836;28;20024;-83
2023/04/21 02:58:59;;;;;;;9.40;7.38;;;12.60;76.90;;;;;;5055207;28;20020;-83
2023/04/21 03:01:24;;;;;;;10.27;7.75;;;12.60;76.90;;;;;;5055037;28;20464;-84
2023/04/21 03:03:50;;;;;;;9.77;7.43;;;12.60;76.90;;;;;;5055094;28;20028;-84
2023/04/21 03:06:15;;;;;;;9.63;7.57;;;12.60;76.90;;;;;;5054234;28;20044;-84
2023/04/21 03:08:41;;;;;;;10.40;7.82;;;12.60;76.90;;;;;;5053717;28;20150;-84
2023/04/21 03:11:06;;;;;;;10.57;7.97;;;12.60;76.90;;;;;;5071396;28;20039;-84
2023/04/21 03:13:32;;;;;;;9.93;7.45;;;12.60;76.90;;;;;;5071710;28;20028;-84
2023/04/21 03:15:57;;;;;;;9.50;7.57;;;12.60;76.90;;;;;;5053816;28;20021;-84
2023/04/21 03:18:23;;;;;;;10.23;7.70;;;12.60;76.90;;;;;;5053676;28;20031;-83
2023/04/21 03:20:48;;;;;;;10.20;7.80;;;12.60;76.90;;;;;;5072279;28;20485;-83
2023/04/21 03:23:14;;;;;;;10.25;7.47;;;12.60;77.00;;;;;;5054509;28;20056;-84
2023/04/21 03:25:40;;;;;;;10.02;7.68;;;12.60;76.90;;;;;;5072363;28;20507;-84
2023/04/21 03:28:05;;;;;;;10.40;8.30;;;12.60;76.90;;;;;;5053462;28;20037;-84
2023/04/21 03:30:31;;;;;;;9.75;7.45;;;12.60;77.00;;;;;;5053650;28;20043;-83
2023/04/21 03:32:57;;;;;;;10.15;7.72;;;12.60;77.00;;;;;;5053430;28;20401;-84
2023/04/21 03:35:23;;;;;;;10.15;7.50;;;12.60;77.00;;;;;;5053559;28;20013;-83
2023/04/21 03:37:48;;;;;;;10.07;7.70;;;12.60;77.00;;;;;;5075225;28;20017;-84
2023/04/21 03:40:14;;;;;;;9.63;7.72;;;12.60;76.60;;;;;;5057744;28;20020;-84
2023/04/21 03:42:40;;;;;;;10.15;7.75;;;12.60;77.00;;;;;;5057952;28;20028;-84
2023/04/21 03:45:07;;;;;;;10.10;7.60;;;12.60;77.10;;;;;;5057808;28;20047;-84
2023/04/21 03:47:32;;;;;;;10.00;7.65;;;12.60;77.00;;;;;;5057828;28;20440;-84
2023/04/21 03:49:58;;;;;;;9.35;7.32;;;12.60;77.10;;;;;;5075540;28;20021;-83
2023/04/21 03:52:24;;;;;;;9.43;7.50;;;12.60;77.10;;;;;;5075423;28;20032;-84
2023/04/21 03:54:50;;;;;;;10.23;8.02;;;12.60;77.60;;;;;;5057067;28;20024;-84
2023/04/21 03:57:16;;;;;;;9.80;7.50;;;12.60;77.00;;;;;;5057222;28;20074;-84
2023/04/21 03:59:41;;;;;;;10.18;7.65;;;12.60;77.10;;;;;;5057214;28;20481;-83
2023/04/21 04:02:07;;;;;;;9.95;7.82;;;12.60;77.10;;;;;;5075609;28;20036;-85
2023/04/21 04:04:33;;;;;;;9.82;7.85;;;12.60;77.10;;;;;;5057374;28;20028;-84
2023/04/21 04:06:58;;;;;;;9.82;7.93;;;12.60;77.10;;;;;;5056992;28;20461;-84
2023/04/21 04:09:24;;;;;;;10.07;8.05;;;12.60;77.10;;;;;;5056636;28;20392;-84
2023/04/21 04:11:49;;;;;;;10.13;7.63;;;12.60;77.10;;;;;;5056771;28;20112;-84
2023/04/21 04:14:15;;;;;;;9.77;7.75;;;12.60;77.10;;;;;;5074661;28;20472;-84
2023/04/21 04:16:41;;;;;;;10.73;7.50;;;12.60;77.10;;;;;;5056662;28;20024;-83
2023/04/21 04:19:06;;;;;;;10.90;8.05;;;12.60;77.10;;;;;;5056520;28;20041;-84
2023/04/21 04:21:32;;;;;;;9.70;7.80;;;12.60;77.10;;;;;;5056409;28;20024;-84
2023/04/21 04:23:59;;;;;;;10.20;8.18;;;12.60;77.10;;;;;;5056927;28;20021;-83
2023/04/21 04:26:25;;;;;;;9.85;8.05;;;12.60;77.20;;;;;;5056465;28;20020;-84
2023/04/21 04:28:52;;;;;;;10.73;8.10;;;12.60;77.20;;;;;;5058220;28;20119;-85
2023/04/21 04:31:18;;;;;;;11.45;8.02;;;12.60;77.20;;;;;;5060633;28;20103;-85
2023/04/21 04:33:43;;;;;;;10.27;7.75;;;12.60;77.20;;;;;;5061439;28;20088;-84
2023/04/21 04:36:10;;;;;;;10.63;8.20;;;12.60;77.20;;;;;;5060984;28;20500;-84
2023/04/21 04:38:37;;;;;;;10.65;8.32;;;12.60;77.20;;;;;;5060877;28;20020;-84
2023/04/21 04:41:03;;;;;;;10.70;8.32;;;12.50;77.10;;;;;;5060779;28;20021;-84
2023/04/21 04:43:32;;;;;;;10.02;7.82;;;12.60;77.20;;;;;;5049089;28;20029;-84
2023/04/21 04:45:58;;;;;;;10.02;8.05;;;12.60;77.20;;;;;;5054298;28;20033;-84
2023/04/21 04:48:24;;;;;;;10.77;8.07;;;12.60;77.20;;;;;;5063464;28;20092;-85
2023/04/21 04:50:49;;;;;;;9.70;7.65;;;12.60;77.20;;;;;;5058019;28;20546;-84
2023/04/21 04:53:15;;;;;;;9.77;7.75;;;12.60;77.20;;;;;;5039167;28;20385;-84
2023/04/21 04:55:41;;;;;;;10.57;8.50;;;12.60;77.20;;;;;;5036243;28;20155;-84
2023/04/21 04:58:06;;;;;;;10.73;8.02;;;12.60;77.20;;;;;;5051194;28;20040;-84
2023/04/21 05:00:32;;;;;;;10.45;7.88;;;12.60;77.20;;;;;;5048472;28;20072;-84
2023/04/21 05:02:57;;;;;;;10.15;8.40;;;12.60;77.20;;;;;;5046801;28;20040;-84
2023/04/21 05:05:23;;;;;;;10.68;7.90;;;12.60;77.10;;;;;;5039517;28;20064;-84
2023/04/21 05:07:49;;;;;;;9.85;7.82;;;12.60;77.20;;;;;;5038552;28;20028;-84
2023/04/21 05:10:15;;;;;;;10.32;8.25;;;12.60;77.10;;;;;;5038737;28;20481;-84
2023/04/21 05:12:41;;;;;;;10.77;8.32;;;12.60;77.20;;;;;;5039045;28;20063;-84
2023/04/21 05:15:07;;;;;;;10.57;8.15;;;12.60;77.10;;;;;;5039152;28;20378;-84
2023/04/21 05:17:33;;;;;;;10.27;8.10;;;12.60;77.10;;;;;;5038689;28;20047;-84
2023/04/21 05:19:58;;;;;;;9.57;7.63;;;12.60;77.10;;;;;;5038079;28;20029;-84
2023/04/21 05:22:25;;;;;;;11.23;8.05;;;12.60;77.10;;;;;;5038259;28;20021;-86
2023/04/21 05:24:51;;;;;;;10.73;8.20;;;12.60;77.10;;;;;;5036767;28;20036;-84
2023/04/21 05:27:16;;;;;;;10.23;8.20;;;12.60;77.00;;;;;;5053936;28;20029;-85
2023/04/21 05:29:42;;;;;;;9.63;7.80;;;12.60;77.00;;;;;;5040697;28;20040;-85
2023/04/21 05:32:08;;;;;;;10.80;8.25;;;12.60;77.00;;;;;;5057645;28;20116;-85
2023/04/21 05:34:33;;;;;;;9.38;7.85;;;12.60;77.00;;;;;;5039986;28;20109;-85
2023/04/21 05:36:59;;;;;;;10.43;8.18;;;12.60;76.90;;;;;;5040411;28;20028;-86
2023/04/21 05:39:26;;;;;;;10.40;8.10;;;12.70;76.90;;;;;;5039745;28;20071;-84
2023/04/21 05:41:51;;;;;;;10.02;8.18;;;12.70;76.90;;;;;;5039635;28;20435;-84
2023/04/21 05:44:17;;;;;;;10.38;7.90;;;12.70;76.90;;;;;;5039387;28;20031;-84
2023/04/21 05:46:43;;;;;;;10.50;8.50;;;12.70;76.90;;;;;;5039253;28;20370;-85
2023/04/21 05:49:08;;;;;;;10.32;8.07;;;12.70;76.80;;;;;;5038913;28;20509;-84
2023/04/21 05:51:34;;;;;;;10.43;8.90;;;12.70;76.80;;;;;;5055263;28;20104;-84
2023/04/21 05:53:59;;;;;;;10.93;8.20;;;12.70;76.80;;;;;;5034934;28;20230;-84
2023/04/21 05:56:24;;;;;;;10.38;8.68;;;12.70;76.70;;;;;;5038156;28;20017;-84
2023/04/21 05:58:51;;;;;;;10.30;7.80;;;12.70;76.70;;;;;;5021151;28;20512;-84
2023/04/21 06:01:17;;;;;;;10.77;8.00;;;12.70;76.70;;;;;;5055537;28;20029;-85
2023/04/21 06:03:42;;;;;;;11.60;8.70;;;12.80;76.70;;;;;;5038177;28;20033;-84
2023/04/21 06:06:09;;;;;;;10.23;8.00;;;12.80;76.60;;;;;;5037950;28;20029;-84
2023/04/21 06:08:34;;;;;;;10.55;8.20;;;12.80;76.60;;;;;;5036890;28;20025;-84
2023/04/21 06:11:00;;;;;;;9.68;7.55;;;12.80;76.60;;;;;;5037535;28;20036;-85
2023/04/21 06:13:26;;;;;;;10.30;8.18;;;12.80;76.50;;;;;;5037371;28;20032;-85
2023/04/21 06:15:52;;;;;;;10.20;8.32;;;12.80;76.50;;;;;;5036796;28;20504;-84
2023/04/21 06:18:18;;;;;;;10.85;8.13;;;12.80;76.50;;;;;;5034476;28;20025;-84
2023/04/21 06:20:50;;;;;;;10.10;8.48;;;12.80;76.40;;;;;;5055053;28;20397;-84
2023/04/21 06:23:15;;;;;;;9.82;7.82;;;12.90;76.40;;;;;;5035882;28;20025;-84
2023/04/21 06:25:41;;;;;;;9.82;7.72;;;12.90;76.40;;;;;;5034779;28;20107;-84
2023/04/21 06:28:06;;;;;;;11.40;8.23;;;12.90;76.30;;;;;;5054702;28;20035;-84
2023/04/21 06:30:32;;;;;;;10.15;7.55;;;12.90;76.30;;;;;;5036321;28;20024;-85
2023/04/21 06:32:57;;;;;;;10.65;7.97;;;12.90;76.30;;;;;;5036705;28;20469;-83
2023/04/21 06:35:23;;;;;;;10.20;7.93;;;12.90;76.30;;;;;;5036565;28;20037;-84
2023/04/21 06:37:48;;;;;;;9.88;7.68;;;12.90;76.20;;;;;;5034690;28;20031;-84
2023/04/21 06:40:16;;;;;;;9.98;7.80;;;12.90;76.20;;;;;;5052448;28;20385;-84
2023/04/21 06:42:42;;;;;;;9.05;7.22;;;12.90;76.10;;;;;;5034105;28;20021;-85
2023/04/21 06:45:08;;;;;;;10.43;7.75;;;13.00;76.20;;;;;;5035976;28;20124;-84
2023/04/21 06:47:33;;;;;;;10.13;8.05;;;13.00;76.10;;;;;;5034528;28;20508;-84
2023/04/21 06:49:59;;;;;;;9.00;7.40;;;13.00;76.00;;;;;;5034461;28;20032;-84
2023/04/21 06:52:25;;;;;;;9.63;7.60;;;13.00;75.90;;;;;;5033667;28;20025;-84
2023/04/21 06:54:50;;;;;;;10.02;7.75;;;13.00;75.80;;;;;;5035399;28;20028;-83
2023/04/21 06:57:16;;;;;;;9.77;7.68;;;13.00;75.80;;;;;;5035476;28;20028;-84
2023/04/21 06:59:42;;;;;;;10.13;7.82;;;13.10;75.90;;;;;;5035096;28;20029;-84
2023/04/21 07:02:07;;;;;;;9.30;7.63;;;13.10;75.80;;;;;;5035079;28;20047;-84
2023/04/21 07:04:33;;;;;;;9.15;7.43;;;13.00;75.70;;;;;;5034971;28;20025;-84
2023/04/21 07:06:58;;;;;;;9.50;7.35;;;13.10;75.70;;;;;;5035281;28;20021;-83
2023/04/21 07:09:24;;;;;;;9.60;7.38;;;13.10;75.80;;;;;;5053163;28;20060;-84
2023/04/21 07:11:49;;;;;;;9.63;7.40;;;13.10;75.80;;;;;;5037899;28;20033;-84
2023/04/21 07:14:15;;;;;;;9.43;6.72;;;13.10;75.70;;;;;;5038243;28;20025;-84
2023/04/21 07:16:40;;;;;;;8.85;7.05;;;13.10;75.70;;;;;;5037812;28;20452;-84
2023/04/21 07:19:06;;;;;;;9.50;7.55;;;13.10;75.90;;;;;;5054358;22;20060;-82
2023/04/21 07:21:34;;;;;;;9.20;7.32;;;13.10;75.60;;;;;;5035263;28;20029;-83
2023/04/21 07:24:01;;;;;;;10.48;8.07;;;13.20;75.60;;;;;;5034734;28;20022;-82
2023/04/21 07:26:26;;;;;;;10.50;8.35;;;13.20;75.40;;;;;;5034496;28;20029;-83
2023/04/21 07:28:52;;;;;;;9.93;7.80;;;13.20;75.40;;;;;;5035745;28;20099;-83
2023/04/21 07:31:18;;;;;;;8.88;6.90;;;13.20;75.30;;;;;;5035365;28;20024;-83
2023/04/21 07:33:43;;;;;;;9.35;7.30;;;13.30;75.20;;;;;;5034302;28;20124;-83
2023/04/21 07:36:09;;;;;;;9.38;7.93;;;13.30;75.20;;;;;;5034282;28;20021;-83
2023/04/21 07:38:35;;;;;;;9.00;7.13;;;13.30;75.10;;;;;;5034369;28;20324;-83
2023/04/21 07:41:00;;;;;;;10.60;7.95;;;13.30;75.00;;;;;;5034374;28;20417;-83
2023/04/21 07:43:26;;;;;;;9.25;7.13;;;13.40;75.10;;;;;;5034122;28;20566;-82
2023/04/21 07:45:51;;;;;;;9.07;7.07;;;13.40;75.00;;;;;;5034106;28;20022;-83
2023/04/21 07:48:17;;;;;;;9.10;7.13;;;13.40;75.40;;;;;;5033930;28;20018;-84
2023/04/21 07:50:43;;;;;;;9.43;7.30;;;13.40;74.80;;;;;;5033803;28;20440;-83
2023/04/21 07:53:09;;;;;;;9.32;7.35;;;13.50;74.80;;;;;;5035148;28;20038;-82
2023/04/21 07:55:36;;;;;;;9.27;7.35;;;13.50;74.70;;;;;;5034182;28;20545;-81
2023/04/21 07:58:02;;;;;;;10.27;7.90;;;13.50;74.70;;;;;;5035310;28;20017;-83
2023/04/21 08:00:28;;;;;;;8.95;7.18;;;13.50;74.70;;;;;;5033470;28;20032;-83
2023/04/21 08:02:53;;;;;;;9.85;7.25;;;13.60;74.70;;;;;;5033854;28;20389;-83
2023/04/21 08:05:19;;;;;;;9.38;7.18;;;13.60;74.70;;;;;;5033801;28;20108;-83
2023/04/21 08:07:45;;;;;;;9.43;7.70;;;13.60;74.60;;;;;;5033500;28;20037;-83
2023/04/21 08:10:10;;;;;;;9.10;7.47;;;13.60;74.60;;;;;;5034749;28;20500;-82
2023/04/21 08:12:36;;;;;;;8.95;7.28;;;13.70;74.60;;;;;;5033608;28;20508;-81
2023/04/21 08:15:04;;;;;;;9.65;7.45;;;13.70;74.60;;;;;;5033595;28;20474;-83
2023/04/21 08:17:30;;;;;;;8.73;7.43;;;13.70;74.50;;;;;;5033767;28;20480;-82
2023/04/21 08:19:56;;;;;;;9.02;6.97;;;13.70;74.50;;;;;;5033477;28;20057;-83
2023/04/21 08:22:21;;;;;;;9.55;7.25;;;13.70;74.50;;;;;;5032208;28;20501;-83
2023/04/21 08:24:47;;;;;;;8.98;7.38;;;13.80;74.50;;;;;;5033624;28;20029;-83
2023/04/21 08:27:12;;;;;;;9.68;7.32;;;13.80;74.50;;;;;;5034650;28;20025;-83
2023/04/21 08:29:38;;;;;;;9.88;7.68;;;13.80;74.50;;;;;;5033267;28;20112;-83
2023/04/21 08:32:03;;;;;;;9.38;7.40;;;13.80;74.50;;;;;;5032979;28;20057;-83
2023/04/21 08:34:29;;;;;;;9.35;7.20;;;13.80;74.50;;;;;;5033119;28;20022;-83
2023/04/21 08:36:54;;;;;;;9.30;6.93;;;13.80;74.40;;;;;;5033162;28;20037;-82
2023/04/21 08:39:20;;;;;;;8.57;6.85;;;13.80;74.50;;;;;;5034211;28;20049;-83
2023/04/21 08:41:46;;;;;;;9.13;7.43;;;13.80;74.50;;;;;;5032933;28;20057;-83
2023/04/21 08:44:12;;;;;;;9.65;7.30;;;13.80;74.50;;;;;;5033060;28;20025;-83
2023/04/21 08:46:38;;;;;;;9.40;7.22;;;13.80;74.40;;;;;;5032980;28;20471;-84
2023/04/21 08:49:05;;;;;;;8.88;6.82;;;13.80;74.50;;;;;;5032919;28;20018;-83
2023/04/21 08:51:30;;;;;;;8.90;6.90;;;13.80;74.50;;;;;;5032598;28;20025;-83
2023/04/21 08:53:57;;;;;;;9.00;7.20;;;13.90;74.50;;;;;;5032894;28;20018;-83
2023/04/21 08:56:25;;;;;;;9.43;7.07;;;13.90;74.50;;;;;;5032822;28;20075;-83
2023/04/21 08:58:50;;;;;;;9.32;7.13;;;13.90;74.40;;;;;;5032666;28;20079;-83
2023/04/21 09:01:16;;;;;;;9.55;6.97;;;13.90;74.50;;;;;;5032753;28;20026;-83
2023/04/21 09:03:41;;;;;;;9.63;6.95;;;13.90;74.40;;;;;;5032599;28;20026;-83
2023/04/21 09:06:08;;;;;;;9.13;6.72;;;13.90;74.40;;;;;;5032792;28;20025;-83
2023/04/21 09:08:37;;;;;;;10.00;7.43;;;13.90;74.40;;;;;;5031950;28;20039;-83
2023/04/21 09:11:03;;;;;;;9.10;6.68;;;13.90;74.30;;;;;;5032533;28;20059;-83
2023/04/21 09:13:34;;;;;;;8.95;6.80;;;13.90;74.30;;;;;;5033391;28;20504;-82
2023/04/21 09:16:01;;;;;;;8.52;6.53;;;13.90;74.40;;;;;;5032492;28;20025;-83
2023/04/21 09:18:34;;;;;;;8.43;6.82;;;13.90;74.50;;;;;;5035742;28;20021;-84
2023/04/21 09:21:07;;;;;;;8.60;6.93;;;13.90;74.50;;;;;;5035608;28;20049;-82
2023/04/21 09:23:50;;;;;;;8.00;6.22;;;13.90;74.60;;;;;;5053751;28;20057;-83
2023/04/21 09:26:17;;;;;;;9.38;6.95;;;13.90;74.50;;;;;;5053728;28;20043;-83
2023/04/21 09:28:44;;;;;;;9.35;7.00;;;13.90;74.60;;;;;;5035242;28;20029;-83
2023/04/21 09:31:15;;;;;;;7.75;6.15;;;13.90;74.70;;;;;;5035234;28;20025;-83
2023/04/21 09:33:53;;;;;;;7.80;5.93;;;13.80;74.70;;;;;;5053008;28;20033;-82
2023/04/21 09:36:23;;;;;;;8.05;6.05;;;13.90;74.70;;;;;;5035243;28;20036;-82
2023/04/21 09:39:00;;;;;;;9.07;7.30;;;13.90;74.80;;;;;;5035288;28;20021;-83
2023/04/21 09:41:26;;;;;;;8.77;6.78;;;13.90;74.70;;;;;;5034870;28;20834;-82
2023/04/21 09:43:51;;;;;;;8.80;6.78;;;13.90;74.80;;;;;;5035333;28;20060;-83
2023/04/21 09:46:19;;;;;;;8.38;6.75;;;13.90;74.80;;;;;;5035246;28;20029;-82
2023/04/21 09:48:45;;;;;;;8.93;6.88;;;13.90;74.80;;;;;;5035083;28;20048;-83
2023/04/21 09:51:12;;;;;;;8.70;6.43;;;13.90;74.80;;;;;;5034879;28;20116;-83
2023/04/21 09:53:42;;;;;;;8.85;6.32;;;13.90;74.80;;;;;;5034947;28;20511;-83
2023/04/21 09:56:12;;;;;;;8.27;6.47;;;13.90;74.80;;;;;;5035003;28;20021;-83
2023/04/21 09:58:47;;;;;;;7.40;5.78;;;13.90;74.70;;;;;;5052599;28;20017;-83
2023/04/21 10:01:14;;;;;;;7.97;6.30;;;13.90;74.70;;;;;;5034862;28;20492;-83
2023/04/21 10:03:42;;;;;;;8.73;6.15;;;14.00;74.70;;;;;;5034748;28;20449;-84
2023/04/21 10:06:08;;;;;;;8.40;6.47;;;14.00;74.50;;;;;;5034909;28;20025;-83
2023/04/21 10:08:34;;;;;;;9.40;6.47;;;14.10;74.60;;;;;;5052123;28;20032;-83
2023/04/21 10:11:01;;;;;;;9.07;6.70;;;14.10;74.40;;;;;;5052233;28;20052;-83
2023/04/21 10:13:26;;;;;;;8.82;6.38;;;14.10;74.30;;;;;;5034480;28;20025;-81
2023/04/21 10:16:06;;;;;;;8.40;6.43;;;14.20;74.40;;;;;;5034626;28;20083;-83
2023/04/21 10:18:37;;;;;;;8.25;6.28;;;14.20;74.20;;;;;;5034320;28;20032;-82
2023/04/21 10:21:07;;;;;;;8.82;6.43;;;14.20;74.30;;;;;;5034258;28;20112;-84
2023/04/21 10:23:45;;;;;;;8.75;6.20;;;14.20;74.20;;;;;;5034392;28;20029;-83
2023/04/21 10:26:23;;;;;;;8.35;6.05;;;14.20;74.10;;;;;;5052487;28;20025;-82
2023/04/21 10:29:06;;;;;;;8.13;6.00;;;14.30;74.20;;;;;;5052201;28;20029;-83
2023/04/21 10:31:33;;;;;;;7.80;5.60;;;14.30;74.10;;;;;;5034169;28;20469;-83
2023/04/21 10:34:05;;;;;;;8.35;5.80;;;14.30;74.10;;;;;;5034343;28;20035;-83
2023/04/21 10:36:31;;;;;;;;;;;14.30;74.10;;;;;;5034515;28;20477;-83
2023/04/21 10:39:02;;;;;;;8.50;5.38;;;14.30;74.20;;;;;;5034455;28;19905;-83
2023/04/21 10:41:30;;;;;;;8.83;6.13;;;14.30;74.20;;;;;;5034046;28;20665;-81
2023/04/21 10:44:00;;;;;;;8.35;6.45;;;14.30;74.20;;;;;;5034309;28;20029;-83
2023/04/21 10:46:36;;;;;;;8.85;6.10;;;14.30;74.20;;;;;;5033738;28;20029;-83
2023/04/21 10:49:07;;;;;;;7.57;5.70;;;14.30;74.20;;;;;;5052105;28;20116;-83
2023/04/21 10:51:56;;;;;;;7.88;6.00;;;14.30;74.20;;;;;;5033747;28;20025;-82
2023/04/21 10:54:21;;;;;;;9.48;6.05;;;14.40;74.20;;;;;;5033734;28;20029;-83
2023/04/21 10:56:50;;;;;;;7.82;5.82;;;14.30;74.20;;;;;;5051853;28;20368;-83
2023/04/21 10:59:17;;;;;;;7.00;5.13;;;14.30;74.10;;;;;;5034089;28;20057;-83
2023/04/21 11:01:43;;;;;;;7.53;5.55;;;14.30;74.20;;;;;;5033818;28;20385;-82
2023/04/21 11:04:13;;;;;;;7.80;5.95;;;14.40;74.30;;;;;;5033968;28;20025;-83
2023/04/21 11:06:39;;;;;;;7.82;5.75;;;14.40;74.30;;;;;;5033422;28;20481;-83
2023/04/21 11:09:04;;;;;;;8.43;5.72;;;14.40;74.10;;;;;;5033916;28;20021;-81
2023/04/21 11:11:30;;;;;;;7.88;5.45;;;14.40;74.10;;;;;;5033643;28;20021;-83
2023/04/21 11:13:59;;;;;;;7.63;5.47;;;14.40;74.10;;;;;;5033791;28;20057;-83
2023/04/21 11:16:24;;;;;;;8.63;6.07;;;14.40;74.20;;;;;;5033652;28;20018;-83
2023/04/21 11:18:50;;;;;;;7.32;5.50;;;14.40;74.20;;;;;;5033555;28;20083;-83
2023/04/21 11:21:20;;;;;;;8.88;5.70;;;14.40;74.20;;;;;;5033604;28;20025;-83
2023/04/21 11:23:53;;;;;;;8.15;5.40;;;14.40;74.20;;;;;;5033892;28;20037;-83
2023/04/21 11:26:30;;;;;;;7.15;5.45;;;14.40;74.10;;;;;;5033956;28;20033;-83
2023/04/21 11:28:58;;;;;;;7.47;5.40;;;14.40;74.20;;;;;;5033952;28;20516;-84
2023/04/21 11:31:28;;;;;;;8.43;5.60;;;14.40;74.20;;;;;;5033325;28;20508;-83
2023/04/21 11:33:54;;;;;;;6.85;5.40;;;14.40;74.20;;;;;;5033645;28;20033;-84
2023/04/21 11:36:21;;;;;;;6.97;4.97;;;14.40;74.30;;;;;;5033684;28;20025;-83
2023/04/21 11:38:47;;;;;;;8.00;5.55;;;14.40;74.20;;;;;;5033409;28;20064;-83
2023/04/21 11:41:21;;;;;;;7.05;5.03;;;14.40;74.20;;;;;;5033426;28;20512;-84
2023/04/21 11:43:47;;;;;;;7.55;5.20;;;14.40;74.30;;;;;;5033668;28;20082;-83
2023/04/21 11:46:21;;;;;;;7.38;5.05;;;14.40;74.30;;;;;;5033622;28;20021;-84
2023/04/21 11:48:57;;;;;;;7.60;5.18;;;14.40;74.40;;;;;;5033604;28;20123;-83
2023/04/21 11:51:23;;;;;;;7.55;5.40;;;14.40;74.30;;;;;;5051171;28;20075;-83
2023/04/21 11:53:48;;;;;;;7.03;4.65;;;14.40;74.30;;;;;;5033195;28;20029;-83
2023/04/21 11:56:20;;;;;;;7.90;5.22;;;14.40;74.40;;;;;;5033546;28;20064;-83
2023/04/21 11:58:47;;;;;;;5.97;4.28;;;14.40;74.50;;;;;;5054097;28;20135;-83
2023/04/21 12:01:15;;;;;;;6.20;4.47;;;14.40;74.40;;;;;;5036984;28;20025;-83
2023/04/21 12:03:41;;;;;;;7.22;4.80;;;14.40;74.50;;;;;;5036816;28;20409;-83
2023/04/21 12:06:06;;;;;;;7.15;4.80;;;14.40;74.50;;;;;;5055112;28;20070;-82
2023/04/21 12:08:32;;;;;;;6.07;4.20;;;14.40;74.50;;;;;;5036544;28;20021;-83
2023/04/21 12:10:58;;;;;;;7.53;4.93;;;14.40;74.50;;;;;;5036631;28;20033;-82
2023/04/21 12:13:27;;;;;;;6.40;4.50;;;14.40;74.60;;;;;;5036791;28;20051;-83
2023/04/21 12:15:53;;;;;;;6.25;4.32;;;14.40;74.50;;;;;;5036849;28;20033;-82
2023/04/21 12:18:18;;;;;;;6.40;4.68;;;14.40;74.50;;;;;;5054442;28;20025;-83
2023/04/21 12:20:51;;;;;;;7.38;4.55;;;14.40;74.60;;;;;;5036495;28;20457;-82
2023/04/21 12:23:17;;;;;;;6.47;4.18;;;14.40;74.60;;;;;;5054577;28;20033;-83
2023/04/21 12:25:45;;;;;;;6.72;4.38;;;14.40;74.60;;;;;;5036642;28;20453;-81
2023/04/21 12:28:14;;;;;;;6.85;4.35;;;14.40;74.70;;;;;;5036617;28;20025;-83
2023/04/21 12:30:39;;;;;;;6.82;4.78;;;14.40;74.70;;;;;;5036216;28;20060;-82
2023/04/21 12:33:05;;;;;;;6.80;4.47;;;14.30;74.70;;;;;;5036552;28;20044;-83
2023/04/21 12:35:32;;;;;;;7.45;4.63;;;14.30;74.70;;;;;;5036405;28;20025;-82
2023/04/21 12:37:57;;;;;;;7.00;4.45;;;14.30;74.70;;;;;;5036501;28;20111;-83
2023/04/21 12:40:23;;;;;;;6.68;4.28;;;14.30;75.30;;;;;;5036046;28;20067;-83